Flight Track Log - Related Links

Times and Time Zones

All times are in EDT time to prevent confusion due to time zone crossing. See the DAL268 flight status page for this flight to view local times or setup timezone preferences in your user account.

Time Position Orientation Groundspeed Altitude Reporting Facility
EDT Latitude Longitude Course Direction KTS MPH feet Rate Location/Type
Sun 23:55:48 40.6510 -73.7680 31° Northeast 164 189 400  Level FlightAware ADS-B
Sun 23:56:03 40.6590 -73.7550 51° Northeast 171 197 900 1,600 Climbing FlightAware ADS-B
Sun 23:56:18 40.6600 -73.7400 85° East 180 207 1,200 1,029 Climbing FlightAware ADS-B
Sun 23:56:38 40.6600 -73.7180 90° East 205 236 1,500 873 Climbing FlightAware ADS-B
Sun 23:57:13 40.6590 -73.6700 92° East 242 278 2,000 840 Climbing FlightAware ADS-B
Sun 23:57:28 40.6520 -73.6470 112° Southeast 257 296 2,200 1,200 Climbing FlightAware ADS-B
Sun 23:57:53 40.6370 -73.6130 120° Southeast 273 314 2,800 1,855 Climbing FlightAware ADS-B
Sun 23:58:23 40.6190 -73.5650 116° Southeast 285 328 3,900 1,855 Climbing FlightAware ADS-B
Sun 23:58:48 40.6030 -73.5260 118° Southeast 301 346 4,500 1,636 Climbing FlightAware ADS-B
Sun 23:59:18 40.5830 -73.4770 118° Southeast 315 362 5,400 1,915 Climbing FlightAware ADS-B
Sun 23:59:35 40.5695 -73.4445 119° Southeast 323 372 6,000 2,000 Climbing FlightAware ADS-B
Sun 23:59:51 40.5588 -73.4178 118° Southeast 328 377 6,500 1,688 Climbing FlightAware ADS-B
Mon 00:00:07 40.5465 -73.3880 119° Southeast 338 389 6,900 1,742 Climbing FlightAware ADS-B
Mon 00:00:22 40.5350 -73.3605 119° Southeast 341 392 7,400 2,129 Climbing FlightAware ADS-B
Mon 00:00:38 40.5235 -73.3331 119° Southeast 342 394 8,000 2,129 Climbing FlightAware ADS-B
Mon 00:00:53 40.5118 -73.3045 118° Southeast 349 402 8,500 1,800 Climbing FlightAware ADS-B
Mon 00:01:08 40.5003 -73.2755 118° Southeast 354 407 8,900 1,742 Climbing FlightAware ADS-B
Mon 00:01:24 40.4882 -73.2445 117° Southeast 359 413 9,400 1,935 Climbing FlightAware ADS-B
Mon 00:01:39 40.4765 -73.2147 117° Southeast 361 415 9,900 1,435 Climbing FlightAware ADS-B
Mon 00:02:10 40.4525 -73.1539 117° Southeast 381 438 10,500 1,200 Climbing FlightAware ADS-B
Mon 00:02:24 40.4420 -73.1243 115° Southeast 391 450 10,800 1,250 Climbing FlightAware ADS-B
Mon 00:02:34 40.4364 -73.1002 107° East 396 456 11,000 1,043 Climbing FlightAware ADS-B
Mon 00:02:47 40.4329 -73.0705 99° East 403 464 11,200 909 Climbing FlightAware ADS-B
Mon 00:03:07 40.4349 -73.0218 87° East 407 468 11,500 1,176 Climbing FlightAware ADS-B
Mon 00:03:38 40.4457 -72.9449 80° East 424 488 12,200 1,672 Climbing FlightAware ADS-B
Mon 00:04:08 40.4569 -72.8657 79° East 433 498 13,200 1,967 Climbing FlightAware ADS-B
Mon 00:04:39 40.4682 -72.7852 80° East 441 507 14,200 2,123 Climbing FlightAware ADS-B
Mon 00:05:13 40.4804 -72.6953 80° East 449 517 15,500 2,029 Climbing FlightAware ADS-B
Mon 00:05:47 40.4926 -72.6028 80° East 458 527 16,500 1,680 Climbing FlightAware ADS-B
Mon 00:06:28 40.5070 -72.4940 80° East 471 542 17,600 1,605 Climbing FlightAware ADS-B
Mon 00:07:13 40.5240 -72.3630 80° East 486 559 18,800 847 Climbing FlightAware ADS-B
Mon 00:07:53 40.5380 -72.2600 80° East 487 560 18,800  Level FlightAware ADS-B
Mon 00:08:33 40.5510 -72.1610 80° East 487 560 18,800  Level FlightAware ADS-B
Mon 00:09:13 40.5650 -72.0620 79° East 487 560 18,800 3,000 Level FlightAware ADS-B
Mon 00:10:03 40.5920 -71.8480 80° East 519 597 23,300 3,067 Climbing FlightAware ADS-B
Mon 00:10:43 40.6070 -71.7400 80° East 520 598 23,400 75 Climbing FlightAware ADS-B
Mon 00:11:23 40.6210 -71.6340 80° East 520 598 23,400  Level FlightAware ADS-B
Mon 00:12:03 40.6350 -71.5280 80° East 520 598 23,400  Level FlightAware ADS-B
Mon 00:12:53 40.6530 -71.3950 80° East 520 598 23,400  Level FlightAware ADS-B
Mon 00:13:33 40.6670 -71.2890 80° East 520 598 23,400 3,133 Level FlightAware ADS-B
Mon 00:14:23 40.6933 -71.0453 80° East 546 628 28,100 3,327 Climbing New York Center
Mon 00:15:23 40.7208 -70.8292 80° East 537 618 29,500 1,109 Climbing New York Center
Mon 00:16:22 40.7458 -70.6239 81° East 556 640 30,300 655 Climbing New York Center
Mon 00:17:22 40.7706 -70.4128 81° East 567 652 30,800 500 Climbing New York Center
Mon 00:18:22 40.7947 -70.2044 81° East 577 664 31,300 650 Climbing New York Center
Mon 00:19:22 40.8164 -69.9878 82° East 589 678 32,100 850 Climbing New York Center
Mon 00:20:22 40.8400 -69.7653 82° East 600 690 33,000 450 Climbing New York Center
Mon 00:21:22 40.8631 -69.5456 82° East 607 699 33,000  Level New York Center
Mon 00:22:24 40.8897 -69.3283 81° East 601 692 33,000  Level New York Center
Mon 00:23:22 40.9142 -69.1111 81° East 596 686 33,000  Level New York Center
Mon 00:24:22 40.9358 -68.8881 83° East 601 692 33,000  Level New York Center
Mon 00:25:24 40.9594 -68.6678 82° East 601 692 33,000  Level New York Center
Mon 00:26:22 40.9806 -68.4500 83° East 596 686 33,000  Level New York Center
Mon 00:27:23 41.0033 -68.2294 82° East 601 692 33,000  Level New York Center
Mon 00:28:22 41.0236 -68.0114 83° East 601 692 33,000  Level New York Center
Mon 00:29:24 41.0433 -67.7906 83° East 601 692 33,000  Level New York Center
Mon 00:30:23 41.0647 -67.5694 83° East 601 692 33,000  Level New York Center
Mon 00:31:23 41.0836 -67.3483 83° East 601 692 33,000  Level New York Center
Mon 00:33:00 41.0992 -67.0342 86° East  Level FlightAware Approximate
Mon 00:34:25 41.1167 -67.0000 78° East 599 689 33,000  Level New York Oceanic (ODAPS)
Mon 00:40:00 41.3460 -65.4858 79° East 599 689 33,000  Level FlightAware Transoceanic
Mon 00:41:00 41.3771 -65.2686 79° East 599 689 33,000  Level FlightAware Transoceanic
Mon 00:42:00 41.4079 -65.0512 79° East 599 689 33,000  Level FlightAware Transoceanic
Mon 00:43:00 41.4382 -64.8336 80° East 599 689 33,000  Level FlightAware Transoceanic
Mon 00:44:00 41.4681 -64.6158 80° East 599 689 33,000  Level FlightAware Transoceanic
Mon 00:45:00 41.4976 -64.3978 80° East 599 689 33,000  Level FlightAware Transoceanic
Mon 00:46:00 41.5267 -64.1797 80° East 599 689 33,000  Level FlightAware Transoceanic
Mon 00:47:00 41.5553 -63.9613 80° East 599 689 33,000  Level FlightAware Transoceanic
Mon 00:48:00 41.5836 -63.7427 80° East 599 689 33,000  Level FlightAware Transoceanic
Mon 00:49:00 41.6114 -63.5239 80° East 599 689 33,000  Level FlightAware Transoceanic
Mon 00:50:00 41.6389 -63.3050 81° East 599 689 33,000  Level FlightAware Transoceanic
Mon 00:51:00 41.6659 -63.0859 81° East 599 689 33,000  Level FlightAware Transoceanic
Mon 00:52:00 41.6925 -62.8666 81° East 599 689 33,000  Level FlightAware Transoceanic
Mon 00:53:00 41.7187 -62.6470 81° East 599 689 33,000  Level FlightAware Transoceanic
Mon 00:54:00 41.7444 -62.4274 81° East 599 689 33,000  Level FlightAware Transoceanic
Mon 00:55:00 41.7698 -62.2075 81° East 599 689 33,000  Level FlightAware Transoceanic
Mon 00:56:00 41.7947 -61.9875 81° East 599 689 33,000  Level FlightAware Transoceanic
Mon 00:57:00 41.8192 -61.7673 82° East 599 689 33,000  Level FlightAware Transoceanic
Mon 00:58:00 41.8433 -61.5470 82° East 599 689 33,000  Level FlightAware Transoceanic
Mon 00:59:00 41.8669 -61.3264 82° East 599 689 33,000  Level FlightAware Transoceanic
Mon 01:00:00 41.8902 -61.1058 82° East 599 689 33,000  Level FlightAware Transoceanic
Mon 01:01:00 41.9130 -60.8849 82° East 599 689 33,000  Level FlightAware Transoceanic
Mon 01:02:00 41.9354 -60.6639 82° East 599 689 33,000  Level FlightAware Transoceanic
Mon 01:03:00 41.9573 -60.4428 82° East 599 689 33,000  Level FlightAware Transoceanic
Mon 01:04:00 41.9789 -60.2215 83° East 599 689 33,000  Level FlightAware Transoceanic
Mon 01:05:00 42.0000 -60.0000 71° East 599 689 33,000  Level FlightAware Transoceanic
Mon 01:06:00 42.0504 -59.7986 71° East 599 689 33,000  Level FlightAware Transoceanic
Mon 01:06:39 42.0000 -60.0000 71° East 570 656 33,000  Level New York Oceanic (ODAPS)
Mon 01:07:00 42.1004 -59.5969 72° East 599 689 33,000  Level FlightAware Transoceanic
Mon 01:08:00 42.1500 -59.3949 72° East 599 689 33,000  Level FlightAware Transoceanic
Mon 01:09:00 42.1993 -59.1926 72° East 599 689 33,000  Level FlightAware Transoceanic
Mon 01:10:00 42.2482 -58.9899 72° East 599 689 33,000  Level FlightAware Transoceanic
Mon 01:11:00 42.2968 -58.7869 72° East 599 689 33,000  Level FlightAware Transoceanic
Mon 01:12:00 42.3451 -58.5837 72° East 599 689 33,000  Level FlightAware Transoceanic
Mon 01:13:00 42.3929 -58.3801 72° East 570 656 33,000  Level FlightAware Transoceanic
Mon 01:14:00 42.4404 -58.1762 73° East 570 656 33,000  Level FlightAware Transoceanic
Mon 01:15:00 42.4876 -57.9720 73° East 570 656 33,000  Level FlightAware Transoceanic
Mon 01:16:00 42.5344 -57.7675 73° East 570 656 33,000  Level FlightAware Transoceanic
Mon 01:17:00 42.5808 -57.5627 73° East 570 656 33,000  Level FlightAware Transoceanic
Mon 01:18:00 42.6268 -57.3575 73° East 570 656 33,000  Level FlightAware Transoceanic
Mon 01:19:00 42.6725 -57.1521 73° East 570 656 33,000  Level FlightAware Transoceanic
Mon 01:20:00 42.7178 -56.9464 73° East 570 656 33,000  Level FlightAware Transoceanic
Mon 01:21:00 42.7628 -56.7404 74° East 570 656 33,000  Level FlightAware Transoceanic
Mon 01:22:00 42.8073 -56.5340 74° East 570 656 33,000  Level FlightAware Transoceanic
Mon 01:23:00 42.8516 -56.3274 74° East 570 656 33,000  Level FlightAware Transoceanic
Mon 01:24:00 42.8954 -56.1205 74° East 570 656 33,000  Level FlightAware Transoceanic
Mon 01:25:00 42.9389 -55.9133 74° East 570 656 33,000  Level FlightAware Transoceanic
Mon 01:26:00 42.9819 -55.7058 74° East 570 656 33,000  Level FlightAware Transoceanic
Mon 01:27:00 43.0247 -55.4980 74° East 570 656 33,000  Level FlightAware Transoceanic
Mon 01:28:00 43.0670 -55.2900 75° East 570 656 33,000  Level FlightAware Transoceanic
Mon 01:29:00 43.1089 -55.0816 75° East 570 656 33,000  Level FlightAware Transoceanic
Mon 01:30:00 43.1505 -54.8730 75° East 570 656 33,000  Level FlightAware Transoceanic
Mon 01:31:00 43.1917 -54.6640 75° East 570 656 33,000  Level FlightAware Transoceanic
Mon 01:32:00 43.2325 -54.4548 75° East 570 656 33,000  Level FlightAware Transoceanic
Mon 01:33:00 43.2730 -54.2453 75° East 570 656 33,000  Level FlightAware Transoceanic
Mon 01:34:00 43.3130 -54.0355 75° East 570 656 33,000  Level FlightAware Transoceanic
Mon 01:35:00 43.3527 -53.8255 76° East 570 656 33,000  Level FlightAware Transoceanic
Mon 01:36:00 43.3920 -53.6152 76° East 570 656 33,000  Level FlightAware Transoceanic
Mon 01:37:00 43.4309 -53.4046 76° East 570 656 33,000  Level FlightAware Transoceanic
Mon 01:38:00 43.4694 -53.1938 76° East 570 656 33,000  Level FlightAware Transoceanic
Mon 01:39:00 43.5075 -52.9826 76° East 570 656 33,000  Level FlightAware Transoceanic
Mon 01:40:00 43.5453 -52.7713 76° East 570 656 33,000  Level FlightAware Transoceanic
Mon 01:41:00 43.5826 -52.5596 76° East 570 656 33,000  Level FlightAware Transoceanic
Mon 01:42:00 43.6196 -52.3477 77° East 570 656 33,000  Level FlightAware Transoceanic
Mon 01:43:00 43.6561 -52.1355 77° East 570 656 33,000  Level FlightAware Transoceanic
Mon 01:44:00 43.6923 -51.9231 77° East 570 656 33,000  Level FlightAware Transoceanic
Mon 01:45:00 43.7281 -51.7104 77° East 570 656 33,000  Level FlightAware Transoceanic
Mon 01:46:00 43.7635 -51.4975 77° East 570 656 33,000  Level FlightAware Transoceanic
Mon 01:47:00 43.7985 -51.2843 77° East 570 656 33,000  Level FlightAware Transoceanic
Mon 01:48:00 43.8330 -51.0708 77° East 570 656 33,000  Level FlightAware Transoceanic
Mon 01:49:00 43.8672 -50.8572 78° East 570 656 33,000  Level FlightAware Transoceanic
Mon 01:50:00 43.9010 -50.6432 78° East 570 656 33,000  Level FlightAware Transoceanic
Mon 01:51:00 43.9344 -50.4291 78° East 570 656 33,000  Level FlightAware Transoceanic
Mon 01:52:00 43.9674 -50.2146 78° East 570 656 33,000  Level FlightAware Transoceanic
Mon 01:53:00 44.0000 -50.0000 71° East 570 656 33,000  Level FlightAware Transoceanic
Mon 01:54:00 44.0526 -49.7904 71° East 570 656 33,000  Level FlightAware Transoceanic
Mon 01:55:00 44.1047 -49.5804 71° East 570 656 33,000  Level FlightAware Transoceanic
Mon 01:56:00 44.1565 -49.3700 71° East 570 656 33,000  Level FlightAware Transoceanic
Mon 01:57:00 44.2079 -49.1593 71° East 570 656 33,000  Level FlightAware Transoceanic
Mon 01:58:00 44.2589 -48.9482 71° East 570 656 33,000  Level FlightAware Transoceanic
Mon 01:58:38 44.0000 -50.0000 71° East 576 663 33,000  Level New York Oceanic (ODAPS)
Mon 01:59:00 44.3095 -48.7367 72° East 570 656 33,000  Level FlightAware Transoceanic
Mon 02:00:00 44.3598 -48.5249 72° East 570 656 33,000  Level FlightAware Transoceanic
Mon 02:01:00 44.4096 -48.3127 72° East 570 656 33,000  Level FlightAware Transoceanic
Mon 02:02:00 44.4590 -48.1001 72° East 570 656 33,000  Level FlightAware Transoceanic
Mon 02:03:00 44.5081 -47.8872 72° East 570 656 33,000  Level FlightAware Transoceanic
Mon 02:04:00 44.5567 -47.6739 72° East 576 663 33,000  Level FlightAware Transoceanic
Mon 02:05:00 44.6050 -47.4603 72° East 576 663 33,000  Level FlightAware Transoceanic
Mon 02:06:00 44.6529 -47.2463 73° East 576 663 33,000  Level FlightAware Transoceanic
Mon 02:07:00 44.7003 -47.0320 73° East 576 663 33,000  Level FlightAware Transoceanic
Mon 02:08:00 44.7474 -46.8173 73° East 576 663 33,000  Level FlightAware Transoceanic
Mon 02:09:00 44.7940 -46.6023 73° East 576 663 33,000  Level FlightAware Transoceanic
Mon 02:10:00 44.8403 -46.3869 73° East 576 663 33,000  Level FlightAware Transoceanic
Mon 02:11:00 44.8861 -46.1712 73° East 576 663 33,000  Level FlightAware Transoceanic
Mon 02:12:00 44.9315 -45.9551 74° East 576 663 33,000  Level FlightAware Transoceanic
Mon 02:13:00 44.9766 -45.7387 74° East 576 663 33,000  Level FlightAware Transoceanic
Mon 02:14:00 45.0212 -45.5220 74° East 576 663 33,000  Level FlightAware Transoceanic
Mon 02:15:00 45.0654 -45.3049 74° East 576 663 33,000  Level FlightAware Transoceanic
Mon 02:16:00 45.1092 -45.0875 74° East 576 663 33,000  Level FlightAware Transoceanic
Mon 02:17:00 45.1526 -44.8698 74° East 576 663 33,000  Level FlightAware Transoceanic
Mon 02:18:00 45.1955 -44.6517 74° East 576 663 33,000  Level FlightAware Transoceanic
Mon 02:19:00 45.2381 -44.4333 75° East 576 663 33,000  Level FlightAware Transoceanic
Mon 02:20:00 45.2802 -44.2145 75° East 576 663 33,000  Level FlightAware Transoceanic
Mon 02:21:00 45.3219 -43.9955 75° East 576 663 33,000  Level FlightAware Transoceanic
Mon 02:22:00 45.3632 -43.7761 75° East 576 663 33,000  Level FlightAware Transoceanic
Mon 02:23:00 45.4041 -43.5564 75° East 576 663 33,000  Level FlightAware Transoceanic
Mon 02:24:00 45.4446 -43.3364 75° East 576 663 33,000  Level FlightAware Transoceanic
Mon 02:25:00 45.4846 -43.1161 76° East 576 663 33,000  Level FlightAware Transoceanic
Mon 02:26:00 45.5242 -42.8955 76° East 576 663 33,000  Level FlightAware Transoceanic
Mon 02:27:00 45.5634 -42.6745 76° East 576 663 33,000  Level FlightAware Transoceanic
Mon 02:28:00 45.6021 -42.4533 76° East 576 663 33,000  Level FlightAware Transoceanic
Mon 02:29:00 45.6405 -42.2317 76° East 576 663 33,000  Level FlightAware Transoceanic
Mon 02:30:00 45.6784 -42.0098 76° East 576 663 33,000  Level FlightAware Transoceanic
Mon 02:31:00 45.7159 -41.7877 77° East 576 663 33,000  Level FlightAware Transoceanic
Mon 02:32:00 45.7529 -41.5652 77° East 576 663 33,000  Level FlightAware Transoceanic
Mon 02:33:00 45.7895 -41.3425 77° East 576 663 33,000  Level FlightAware Transoceanic
Mon 02:34:00 45.8257 -41.1195 77° East 576 663 33,000  Level FlightAware Transoceanic
Mon 02:35:00 45.8614 -40.8961 77° East 576 663 33,000  Level FlightAware Transoceanic
Mon 02:36:00 45.8967 -40.6725 77° East 576 663 33,000  Level FlightAware Transoceanic
Mon 02:37:00 45.9316 -40.4486 77° East 576 663 33,000  Level FlightAware Transoceanic
Mon 02:38:00 45.9660 -40.2244 78° East 576 663 33,000  Level FlightAware Transoceanic
Mon 02:39:00 46.0000 -40.0000 70° East 576 663 33,000  Level FlightAware Transoceanic
Mon 02:40:00 46.0549 -39.7814 70° East 576 663 33,000  Level FlightAware Transoceanic
Mon 02:41:00 46.0000 -40.0000 70° East 581 669 33,000  Level ETMS Enhanced Traffic Management System
Mon 02:41:00 46.1094 -39.5624 70° East 576 663 33,000  Level FlightAware Transoceanic
Mon 02:42:00 46.1634 -39.3429 71° East 576 663 33,000  Level FlightAware Transoceanic
Mon 02:43:00 46.2171 -39.1231 71° East 576 663 33,000  Level FlightAware Transoceanic
Mon 02:44:00 46.2703 -38.9027 71° East 576 663 33,000  Level FlightAware Transoceanic
Mon 02:45:00 46.3231 -38.6820 71° East 576 663 33,000  Level FlightAware Transoceanic
Mon 02:46:00 46.3755 -38.4608 71° East 576 663 33,000  Level FlightAware Transoceanic
Mon 02:47:00 46.4274 -38.2393 71° East 576 663 33,000  Level FlightAware Transoceanic
Mon 02:48:00 46.4789 -38.0173 71° East 581 669 33,000  Level FlightAware Transoceanic
Mon 02:49:00 46.5300 -37.7948 72° East 581 669 33,000  Level FlightAware Transoceanic
Mon 02:50:00 46.5807 -37.5720 72° East 581 669 33,000  Level FlightAware Transoceanic
Mon 02:51:00 46.6309 -37.3487 72° East 581 669 33,000  Level FlightAware Transoceanic
Mon 02:52:00 46.6807 -37.1251 72° East 581 669 33,000  Level FlightAware Transoceanic
Mon 02:53:00 46.7300 -36.9010 72° East 581 669 33,000  Level FlightAware Transoceanic
Mon 02:54:00 46.7789 -36.6765 72° East 581 669 33,000  Level FlightAware Transoceanic
Mon 02:55:00 46.8274 -36.4516 73° East 581 669 33,000  Level FlightAware Transoceanic
Mon 02:56:00 46.8754 -36.2263 73° East 581 669 33,000  Level FlightAware Transoceanic
Mon 02:57:00 46.9230 -36.0006 73° East 581 669 33,000  Level FlightAware Transoceanic
Mon 02:58:00 46.9702 -35.7745 73° East 581 669 33,000  Level FlightAware Transoceanic
Mon 02:59:00 47.0169 -35.5480 73° East 581 669 33,000  Level FlightAware Transoceanic
Mon 03:00:00 47.0631 -35.3211 73° East 581 669 33,000  Level FlightAware Transoceanic
Mon 03:01:00 47.1089 -35.0938 74° East 581 669 33,000  Level FlightAware Transoceanic
Mon 03:02:00 47.1543 -34.8662 74° East 581 669 33,000  Level FlightAware Transoceanic
Mon 03:03:00 47.1992 -34.6381 74° East 581 669 33,000  Level FlightAware Transoceanic
Mon 03:04:00 47.2436 -34.4096 74° East 581 669 33,000  Level FlightAware Transoceanic
Mon 03:05:00 47.2876 -34.1808 74° East 581 669 33,000  Level FlightAware Transoceanic
Mon 03:06:00 47.3311 -33.9516 74° East 581 669 33,000  Level FlightAware Transoceanic
Mon 03:07:00 47.3742 -33.7220 75° East 581 669 33,000  Level FlightAware Transoceanic
Mon 03:08:00 47.4168 -33.4921 75° East 581 669 33,000  Level FlightAware Transoceanic
Mon 03:09:00 47.4590 -33.2618 75° East 581 669 33,000  Level FlightAware Transoceanic
Mon 03:10:00 47.5006 -33.0311 75° East 581 669 33,000  Level FlightAware Transoceanic
Mon 03:11:00 47.5419 -32.8000 75° East 581 669 33,000  Level FlightAware Transoceanic
Mon 03:12:00 47.5826 -32.5686 75° East 581 669 33,000  Level FlightAware Transoceanic
Mon 03:13:00 47.6230 -32.3368 76° East 581 669 33,000  Level FlightAware Transoceanic
Mon 03:14:00 47.6628 -32.1047 76° East 581 669 33,000  Level FlightAware Transoceanic
Mon 03:15:00 47.7021 -31.8722 76° East 581 669 33,000  Level FlightAware Transoceanic
Mon 03:16:00 47.7410 -31.6394 76° East 581 669 33,000  Level FlightAware Transoceanic
Mon 03:17:00 47.7794 -31.4062 76° East 581 669 33,000  Level FlightAware Transoceanic
Mon 03:18:00 47.8174 -31.1726 76° East 581 669 33,000  Level FlightAware Transoceanic
Mon 03:19:00 47.8549 -30.9388 77° East 581 669 33,000  Level FlightAware Transoceanic
Mon 03:20:00 47.8919 -30.7046 77° East 581 669 33,000  Level FlightAware Transoceanic
Mon 03:21:00 47.9284 -30.4701 77° East 581 669 33,000  Level FlightAware Transoceanic
Mon 03:22:00 47.9644 -30.2352 77° East 581 669 33,000  Level FlightAware Transoceanic
Mon 03:23:00 47.9806 -30.0263 83° East  Level Estimated
Mon 03:24:00 48.0000 -30.0000 78° East 560 644 33,000  Level ETMS Enhanced Traffic Management System
Mon 03:24:00 47.9964 -29.8172 83° East  Level Estimated
Mon 03:25:00 48.0117 -29.6081 84° East  Level Estimated
Mon 03:26:00 48.0268 -29.3988 84° East  Level Estimated
Mon 03:27:00 48.0414 -29.1894 84° East  Level Estimated
Mon 03:28:00 48.0556 -28.9799 84° East  Level Estimated
Mon 03:29:00 48.0695 -28.7702 84° East  Level Estimated
Mon 03:30:00 48.0884 -28.7434 84° East  Level Estimated
Mon 03:31:00 48.1018 -28.5336 84° East  Level Estimated
Mon 03:32:00 48.1148 -28.3236 85° East  Level Estimated
Mon 03:33:00 48.1275 -28.1136 85° East  Level Estimated
Mon 03:34:00 48.1397 -27.9034 85° East  Level Estimated
Mon 03:35:00 48.1516 -27.6931 85° East  Level Estimated
Mon 03:36:00 48.1631 -27.4828 85° East  Level Estimated
Mon 03:37:00 48.1742 -27.2724 85° East  Level Estimated
Mon 03:38:00 48.1849 -27.0618 86° East  Level Estimated
Mon 03:39:00 48.1953 -26.8512 86° East  Level Estimated
Mon 03:40:00 48.2052 -26.6405 86° East  Level Estimated
Mon 03:41:00 48.2148 -26.4297 86° East  Level Estimated
Mon 03:42:00 48.2240 -26.2189 86° East  Level Estimated
Mon 03:43:00 48.2327 -26.0079 86° East  Level Estimated
Mon 03:44:00 48.2412 -25.7969 86° East  Level Estimated
Mon 03:45:00 48.2492 -25.5859 87° East  Level Estimated
Mon 03:46:00 48.2568 -25.3747 87° East  Level Estimated
Mon 03:47:00 48.2641 -25.1635 87° East  Level Estimated
Mon 03:48:00 48.2709 -24.9523 87° East  Level Estimated
Mon 03:49:00 48.2774 -24.7409 87° East  Level Estimated
Mon 03:50:00 48.2835 -24.5296 87° East  Level Estimated
Mon 03:51:00 48.2892 -24.3182 88° East  Level Estimated
Mon 03:52:00 48.2945 -24.1067 88° East  Level Estimated
Mon 03:53:00 48.2994 -23.8952 88° East  Level Estimated
Mon 03:54:00 48.3040 -23.6837 88° East  Level Estimated
Mon 03:55:00 48.3081 -23.4721 88° East  Level Estimated
Mon 03:56:00 48.3119 -23.2605 88° East  Level Estimated
Mon 03:57:00 48.3153 -23.0488 89° East  Level Estimated
Mon 03:58:00 48.3182 -22.8372 89° East  Level Estimated
Mon 03:59:00 48.3208 -22.6255 89° East  Level Estimated
Mon 04:00:00 48.3231 -22.4138 89° East  Level Estimated
Mon 04:01:00 48.3249 -22.2021 89° East  Level Estimated
Mon 04:02:00 48.3263 -21.9903 89° East  Level Estimated
Mon 04:03:00 48.3273 -21.7786 89° East  Level Estimated
Mon 04:04:00 48.3280 -21.5668 90° East  Level Estimated
Mon 04:05:00 48.3283 -21.3550 90° East  Level Estimated
Mon 04:06:00 48.3281 -21.1433 90° East  Level Estimated
Mon 04:07:00 48.3276 -20.9315 90° East  Level Estimated
Mon 04:08:00 48.3267 -20.7198 90° East  Level Estimated
Mon 04:09:00 48.3254 -20.5084 90° East  Level Estimated
Mon 04:10:00 48.3238 -20.2970 91° East  Level Estimated
Mon 04:11:00 48.3217 -20.0857 91° East  Level Estimated
Mon 04:12:00 48.3193 -19.8743 91° East  Level Estimated
Mon 04:13:00 48.3164 -19.6630 91° East  Level Estimated
Mon 04:14:00 48.3132 -19.4517 91° East  Level Estimated
Mon 04:15:00 48.3096 -19.2404 91° East  Level Estimated
Mon 04:16:00 48.3056 -19.0292 92° East  Level Estimated
Mon 04:17:00 48.3012 -18.8180 92° East  Level Estimated
Mon 04:18:00 48.2964 -18.6069 92° East  Level Estimated
Mon 04:19:00 48.2913 -18.3957 92° East  Level Estimated
Mon 04:20:00 48.2857 -18.1847 92° East  Level Estimated
Mon 04:21:00 48.2798 -17.9736 92° East  Level Estimated
Mon 04:22:00 48.2735 -17.7627 92° East  Level Estimated
Mon 04:23:00 48.2668 -17.5517 93° East  Level Estimated
Mon 04:24:00 48.2597 -17.3409 93° East  Level Estimated
Mon 04:25:00 48.2522 -17.1301 93° East  Level Estimated
Mon 04:26:00 48.2444 -16.9193 93° East  Level Estimated
Mon 04:27:00 48.2361 -16.7086 93° East  Level Estimated
Mon 04:28:00 48.2275 -16.4980 93° East  Level Estimated
Mon 04:29:00 48.2185 -16.2875 94° East  Level Estimated
Mon 04:30:00 48.2091 -16.0770 94° East  Level Estimated
Mon 04:31:00 48.1993 -15.8667 94° East  Level Estimated
Mon 04:32:00 48.1892 -15.6564 94° East  Level Estimated
Mon 04:33:00 48.1786 -15.4461 94° East  Level Estimated
Mon 04:34:00 48.1677 -15.2360 94° East  Level Estimated
Mon 04:35:00 48.1564 -15.0260 95° East  Level Estimated
Mon 04:36:00 48.1447 -14.8161 95° East  Level Estimated
Mon 04:37:00 48.1326 -14.6062 95° East  Level Estimated
Mon 04:38:00 48.1201 -14.3965 95° East  Level Estimated
Mon 04:39:00 48.1073 -14.1868 95° East  Level Estimated
Mon 04:40:00 48.0941 -13.9773 95° East  Level Estimated
Mon 04:41:00 48.0805 -13.7679 95° East  Level Estimated
Mon 04:42:00 48.0665 -13.5586 96° East  Level Estimated
Mon 04:43:00 48.0521 -13.3494 96° East  Level Estimated
Mon 04:44:00 48.0374 -13.1403 96° East  Level Estimated
Mon 04:45:00 48.0223 -12.9313 96° East  Level Estimated
Mon 04:46:00 48.0068 -12.7225 96° East  Level Estimated
Mon 04:47:00 47.9909 -12.5138 96° East  Level Estimated
Mon 04:48:00 47.9746 -12.3052 97° East  Level Estimated
Mon 04:49:00 47.9580 -12.0968 97° East  Level Estimated
Mon 04:50:00 47.9410 -11.8885 97° East  Level Estimated
Mon 04:51:00 47.9236 -11.6803 97° East  Level Estimated
Mon 04:52:00 47.9058 -11.4723 97° East  Level Estimated
Mon 04:52:52 48.7730 -9.1780 97° East 529 609 35,100  Level FlightAware ADS-B
Mon 04:53:00 47.8877 -11.2644 97° East  Level Estimated
Mon 04:53:37 48.7620 -9.0120 96° East 529 609 35,100  Level FlightAware ADS-B
Mon 04:53:54 48.7531 -8.9431 96° East 1 1 33,500 -2,743 Descending FlightAware UK
Mon 04:54:12 48.7483 -8.8749 96° East 482 555 33,500 4,174 Level FlightAware UK
Mon 04:54:17 48.7510 -8.8620 96° East 530 610 35,100  Climbing FlightAware ADS-B
Mon 04:54:36 48.7418 -8.7858 96° East 482 555 33,500 -2,595 Descending FlightAware UK
Mon 04:54:54 48.7371 -8.7193 96° East 482 555 33,500 3,692 Level FlightAware UK
Mon 04:55:02 48.7390 -8.6970 96° East 531 611 35,100  Climbing FlightAware ADS-B
Mon 04:55:18 48.7305 -8.6306 96° East 482 555 33,500 -2,824 Descending FlightAware UK
Mon 04:55:36 48.7255 -8.5641 96° East 484 557 33,500 4,000 Level FlightAware UK
Mon 04:55:42 48.7280 -8.5500 96° East 532 612 35,100  Climbing FlightAware ADS-B
Mon 04:56:00 48.7188 -8.4753 96° East 484 557 33,500  Descending FlightAware UK
Mon 04:56:17 48.7190 -8.4280 97° East 532 612 35,100  Climbing FlightAware ADS-B
Mon 04:56:18 48.7136 -8.4088 97° East 486 559 33,500 -5,053 Descending FlightAware UK
Mon 04:56:36 48.7083 -8.3422 97° East 484 557 33,500  Level FlightAware UK
Mon 04:56:54 48.7030 -8.2756 97° East 484 557 33,500 3,097 Level FlightAware UK
Mon 04:57:07 48.7040 -8.2380 97° East 532 612 35,100  Climbing FlightAware ADS-B
Mon 04:57:24 48.6942 -8.1646 97° East 486 559 33,500 -2,743 Descending FlightAware UK
Mon 04:57:42 48.6891 -8.0980 97° East 486 559 33,500 4,174 Level FlightAware UK
Mon 04:57:47 48.6910 -8.0850 97° East 533 613 35,100  Climbing FlightAware ADS-B
Mon 04:58:06 48.6821 -8.0091 97° East 486 559 33,500 -2,595 Descending FlightAware UK
Mon 04:58:24 48.6754 -7.9419 99° East 486 559 33,500 3,692 Level FlightAware UK
Mon 04:58:32 48.6750 -7.9240 99° East 532 612 35,100  Climbing FlightAware ADS-B
Mon 04:58:48 48.6603 -7.8554 99° East 486 559 33,500 -2,824 Descending FlightAware UK
Mon 04:59:06 48.6483 -7.7912 106° East 486 559 33,500 4,000 Level FlightAware UK
Mon 04:59:12 48.6500 -7.7840 106° East 528 608 35,100  Climbing FlightAware ADS-B
Mon 04:59:30 48.6303 -7.7069 106° East 488 562 33,500 -2,667 Descending FlightAware UK
Mon 04:59:48 48.6170 -7.6435 108° East 488 562 33,500 3,556 Level FlightAware UK
Mon 04:59:57 48.6160 -7.6210 108° East 529 609 35,100  Climbing FlightAware ADS-B
Mon 05:00:12 48.5996 -7.5590 108° East 486 559 33,500 -2,909 Descending FlightAware UK
Mon 05:00:30 48.5863 -7.4957 108° East 486 559 33,500 3,840 Level FlightAware UK
Mon 05:00:37 48.5870 -7.4830 108° East 528 608 35,100  Climbing FlightAware ADS-B
Mon 05:00:54 48.5686 -7.4115 108° East 486 559 33,500 -2,743 Descending FlightAware UK
Mon 05:01:12 48.5552 -7.3484 108° East 482 555 33,500 4,174 Level FlightAware UK
Mon 05:01:17 48.5570 -7.3440 108° East 528 608 35,100  Climbing FlightAware ADS-B
Mon 05:01:36 48.5373 -7.2642 108° East 482 555 33,500 -2,595 Descending FlightAware UK
Mon 05:01:54 48.5237 -7.2012 108° East 482 555 33,500 3,692 Level FlightAware UK
Mon 05:02:02 48.5230 -7.1840 108° East 529 609 35,100  Climbing FlightAware ADS-B
Mon 05:02:18 48.5055 -7.1172 108° East 482 555 33,500 -2,824 Descending FlightAware UK
Mon 05:02:36 48.4920 -7.0540 108° East 482 555 33,500  Level FlightAware UK
Mon 05:02:54 48.4781 -6.9910 108° East 480 552 33,500  Level FlightAware UK
Mon 05:03:12 48.4642 -6.9279 108° East 480 552 33,500  Level FlightAware UK
Mon 05:03:30 48.4500 -6.8639 108° East 482 555 33,500  Level FlightAware UK
Mon 05:03:48 48.4359 -6.8004 108° East 484 557 33,500  Level FlightAware UK
Mon 05:04:06 48.4219 -6.7369 108° East 490 564 33,500  Level FlightAware UK
Mon 05:04:24 48.4078 -6.6731 108° East 496 571 33,500  Level FlightAware UK
Mon 05:04:42 48.3937 -6.6092 108° East 490 564 33,500  Level FlightAware UK
Mon 05:05:00 48.3795 -6.5452 108° East 490 564 33,500  Level FlightAware UK
Mon 05:05:18 48.3651 -6.4813 109° East 492 566 33,500  Level FlightAware UK
Mon 05:05:36 48.3509 -6.4178 109° East 494 568 33,500  Level FlightAware UK
Mon 05:05:54 48.3367 -6.3547 109° East 494 568 33,500  Level FlightAware UK
Mon 05:06:12 48.3226 -6.2920 109° East 492 566 33,500  Level FlightAware UK
Mon 05:06:30 48.3086 -6.2294 109° East 488 562 33,500  Level FlightAware UK
Mon 05:06:48 48.2945 -6.1671 109° East 484 557 33,500 3,556 Level FlightAware UK
Mon 05:06:57 48.2940 -6.1530 109° East 525 604 35,100  Climbing FlightAware ADS-B
Mon 05:07:12 48.2760 -6.0846 109° East 486 559 33,500 -2,909 Descending FlightAware UK
Mon 05:07:30 48.2619 -6.0228 109° East 484 557 33,500 3,840 Level FlightAware UK
Mon 05:07:37 48.2630 -6.0140 109° East 525 604 35,100  Climbing FlightAware ADS-B
Mon 05:07:54 48.2430 -5.9405 109° East 486 559 33,500 -2,743 Descending FlightAware UK
Mon 05:08:12 48.2290 -5.8790 109° East 486 559 33,500 4,174 Level FlightAware UK
Mon 05:08:17 48.2330 -5.8860 109° East 524 603 35,100  Climbing FlightAware ADS-B
Mon 05:08:36 48.2103 -5.7969 109° East 486 559 33,500 -2,595 Descending FlightAware UK
Mon 05:08:54 48.1961 -5.7349 109° East 486 559 33,500 3,692 Level FlightAware UK
Mon 05:09:02 48.1980 -5.7310 109° East 523 602 35,100 2,000 Climbing FlightAware ADS-B
Mon 05:09:42 48.1640 -5.5850 109° East 524 603 35,100  Level FlightAware ADS-B
Mon 05:10:22 48.1300 -5.4390 109° East 522 601 35,100  Level FlightAware ADS-B
Mon 05:11:07 48.0970 -5.2960 109° East 525 604 35,100  Level FlightAware ADS-B
Mon 05:12:02 48.0530 -5.1100 109° East 526 605 35,100  Level FlightAware ADS-B
Mon 05:12:47 48.0140 -4.9450 109° East 523 602 35,100  Level FlightAware ADS-B
Mon 05:13:27 47.9810 -4.8070 110° East 523 602 35,100  Level FlightAware ADS-B
Mon 05:14:12 47.9440 -4.6530 110° East 522 601 35,100  Level FlightAware ADS-B
Mon 05:14:52 47.9120 -4.5200 110° East 520 598 35,100  Level FlightAware ADS-B
Mon 05:15:32 47.8780 -4.3830 110° East 519 597 35,100  Level FlightAware ADS-B
Mon 05:16:17 47.8410 -4.2310 110° East 519 597 35,100  Level FlightAware ADS-B
Mon 05:17:12 47.8010 -4.0650 110° East 519 597 35,100  Level FlightAware ADS-B
Mon 05:17:52 47.7640 -3.9180 110° East 520 598 35,100  Level FlightAware ADS-B
Mon 05:18:32 47.7320 -3.7860 110° East 520 598 35,100  Level FlightAware ADS-B
Mon 05:19:17 47.6920 -3.6280 111° Southeast 519 597 35,100  Level FlightAware ADS-B
Mon 05:19:57 47.6580 -3.4930 110° East 517 595 35,100  Level FlightAware ADS-B
Mon 05:20:32 47.6320 -3.3860 110° East 516 594 35,100  Level FlightAware ADS-B
Mon 05:21:22 47.5820 -3.2210 114° Southeast 510 587 35,100  Level FlightAware ADS-B
Mon 05:22:07 47.5260 -3.0850 121° Southeast 506 582 35,100  Level FlightAware ADS-B
Mon 05:22:47 47.4750 -2.9670 123° Southeast 505 581 35,100  Level FlightAware ADS-B
Mon 05:23:32 47.4200 -2.8400 123° Southeast 505 581 35,100  Level FlightAware ADS-B
Mon 05:24:12 47.3700 -2.7270 123° Southeast 504 580 35,100  Level FlightAware ADS-B
Mon 05:24:52 47.3190 -2.6120 123° Southeast 504 580 35,100  Level FlightAware ADS-B
Mon 05:25:37 47.2590 -2.4780 123° Southeast 503 579 35,100  Level FlightAware ADS-B
Mon 05:26:17 47.2080 -2.3620 123° Southeast 503 579 35,100  Level FlightAware ADS-B
Mon 05:26:57 47.1590 -2.2530 123° Southeast 503 579 35,100  Level FlightAware ADS-B
Mon 05:27:42 47.1010 -2.1240 123° Southeast 505 581 35,100  Level FlightAware ADS-B
Mon 05:28:22 47.0490 -2.0080 123° Southeast 506 582 35,100  Level FlightAware ADS-B
Mon 05:29:07 46.9910 -1.8780 123° Southeast 506 582 35,100  Level FlightAware ADS-B
Mon 05:29:47 46.9400 -1.7640 123° Southeast 507 583 35,100  Level FlightAware ADS-B
Mon 05:30:27 46.8880 -1.6470 123° Southeast 507 583 35,100  Level FlightAware ADS-B
Mon 05:31:07 46.8370 -1.5340 123° Southeast 508 585 35,100  Level FlightAware ADS-B
Mon 05:31:52 46.7800 -1.4090 124° Southeast 509 586 35,100  Level FlightAware ADS-B
Mon 05:32:37 46.7190 -1.2740 123° Southeast 510 587 35,100  Level FlightAware ADS-B
Mon 05:33:17 46.6670 -1.1590 123° Southeast 510 587 35,100  Level FlightAware ADS-B
Mon 05:33:57 46.6150 -1.0450 124° Southeast 511 588 35,100  Level FlightAware ADS-B
Mon 05:34:42 46.5580 -0.9210 124° Southeast 512 589 35,100  Level FlightAware ADS-B
Mon 05:35:22 46.5110 -0.8160 123° Southeast 513 590 35,100  Level FlightAware ADS-B
Mon 05:35:47 46.5010 -0.7310 100° East 35,100  Level FlightAware ADS-B
Mon 05:37:12 46.4640 -0.4180 100° East 529 609 35,100  Level FlightAware ADS-B
Mon 05:38:12 46.4410 -0.2250 100° East 527 606 35,100  Level FlightAware ADS-B
Mon 05:38:47 46.4290 -0.1120 99° East 527 606 35,100  Level FlightAware ADS-B
Mon 05:39:32 46.4050 0.0610 101° East 525 604 35,100  Level FlightAware ADS-B
Mon 05:40:07 46.3910 0.1690 101° East 35,100  Level FlightAware ADS-B
Mon 05:41:47 46.3460 0.4960 106° East 520 598 35,100  Level FlightAware ADS-B
Mon 05:42:00 46.3171 0.5373 106° East  Level Estimated
Mon 05:42:52 46.3150 0.7220 101° East 521 600 35,100  Level FlightAware ADS-B
Mon 05:43:32 46.3000 0.8390 100° East 521 600 35,100  Level FlightAware ADS-B
Mon 05:44:12 46.2750 1.0090 102° East 516 594 35,100  Level FlightAware ADS-B
Mon 05:44:57 46.2540 1.1620 101° East 514 592 35,100  Level FlightAware ADS-B
Mon 05:45:37 46.2370 1.2840 101° East 514 592 35,100  Level FlightAware ADS-B
Mon 05:46:22 46.2140 1.4490 101° East 510 587 35,100  Level FlightAware ADS-B
Mon 05:47:12 46.1930 1.6000 101° East 511 588 35,100  Level FlightAware ADS-B
Mon 05:48:02 46.1640 1.7950 102° East 510 587 35,100  Level FlightAware ADS-B
Mon 05:48:42 46.1430 1.9300 103° East 507 583 35,100  Level FlightAware ADS-B
Mon 05:49:22 46.1230 2.0600 102° East 507 583 35,100  Level FlightAware ADS-B
Mon 05:50:07 46.1000 2.2030 103° East 507 583 35,100  Level FlightAware ADS-B
Mon 05:50:42 46.0820 2.3180 103° East 506 582 35,100  Level FlightAware ADS-B
Mon 05:51:27 46.0580 2.4690 103° East 506 582 35,100  Level FlightAware ADS-B
Mon 05:52:12 46.0300 2.6060 106° East 500 575 35,100  Level FlightAware ADS-B
Mon 05:52:52 45.9840 2.7110 122° Southeast 493 567 35,100  Level FlightAware ADS-B
Mon 05:53:47 45.8990 2.8530 131° Southeast 493 567 35,100  Level FlightAware ADS-B
Mon 05:54:32 45.8320 2.9490 135° Southeast 494 568 35,100  Level FlightAware ADS-B
Mon 05:55:12 45.7570 3.0560 135° Southeast 493 567 35,100  Level FlightAware ADS-B
Mon 05:55:57 45.6850 3.1610 134° Southeast 492 566 35,100  Level FlightAware ADS-B
Mon 05:56:37 45.6260 3.2460 135° Southeast 494 568 35,100  Level FlightAware ADS-B
Mon 05:57:32 45.5360 3.3730 135° Southeast 494 568 35,100  Level FlightAware ADS-B
Mon 05:58:12 45.4740 3.4620 135° Southeast 489 563 35,100  Level FlightAware ADS-B
Mon 05:59:12 45.3810 3.5950 135° Southeast 485 558 35,100  Level FlightAware ADS-B
Mon 05:59:52 45.3070 3.6990 135° Southeast 489 563 35,100  Level FlightAware ADS-B
Mon 06:00:37 45.2470 3.8190 125° Southeast 497 572 35,100  Level FlightAware ADS-B
Mon 06:01:17 45.1990 3.9360 120° Southeast 494 568 35,100  Level FlightAware ADS-B
Mon 06:02:07 45.1440 4.0650 121° Southeast 492 566 35,100  Level FlightAware ADS-B
Mon 06:02:57 45.0940 4.1820 121° Southeast 492 566 35,100  Level FlightAware ADS-B
Mon 06:03:37 45.0350 4.3010 125° Southeast 484 557 35,100  Level FlightAware ADS-B
Mon 06:04:17 44.9860 4.4080 123° Southeast 484 557 35,100  Level FlightAware ADS-B
Mon 06:05:02 44.9310 4.5410 120° Southeast 484 557 35,100  Level FlightAware ADS-B
Mon 06:05:42 44.8870 4.6410 122° Southeast 487 560 35,100  Level FlightAware ADS-B
Mon 06:06:27 44.8260 4.7660 124° Southeast 490 564 35,100  Level FlightAware ADS-B
Mon 06:07:07 44.7770 4.8650 125° Southeast 491 565 35,100  Level FlightAware ADS-B
Mon 06:07:47 44.7240 4.9750 124° Southeast 492 566 35,100  Level FlightAware ADS-B
Mon 06:08:32 44.6650 5.0990 124° Southeast 492 566 35,100  Level FlightAware ADS-B
Mon 06:09:12 44.6150 5.2020 124° Southeast 492 566 35,100  Level FlightAware ADS-B
Mon 06:09:52 44.5630 5.3090 124° Southeast 488 562 35,100  Level FlightAware ADS-B
Mon 06:10:37 44.5040 5.4260 125° Southeast 487 560 35,100  Level FlightAware ADS-B
Mon 06:11:12 44.4630 5.5090 125° Southeast 486 559 35,100  Level FlightAware ADS-B
Mon 06:12:02 44.3950 5.6480 124° Southeast 491 565 35,100  Level FlightAware ADS-B
Mon 06:12:42 44.3440 5.7520 124° Southeast 491 565 35,100  Level FlightAware ADS-B
Mon 06:13:17 44.3040 5.8320 125° Southeast 490 564 35,100  Level FlightAware ADS-B
Mon 06:14:02 44.2390 5.9620 125° Southeast 485 558 35,100  Level FlightAware ADS-B
Mon 06:14:42 44.1900 6.0600 125° Southeast 484 557 35,100  Level FlightAware ADS-B
Mon 06:15:27 44.1310 6.1750 126° Southeast 482 555 35,100  Level FlightAware ADS-B
Mon 06:16:12 44.0750 6.2860 125° Southeast 480 552 35,100  Level FlightAware ADS-B
Mon 06:16:47 44.0340 6.3640 126° Southeast 481 554 35,100  Level FlightAware ADS-B
Mon 06:17:37 43.9600 6.5080 125° Southeast 481 554 35,100  Level FlightAware ADS-B
Mon 06:18:22 43.9040 6.6150 126° Southeast 481 554 35,100  Level FlightAware ADS-B
Mon 06:19:02 43.8530 6.7140 126° Southeast 480 552 35,100  Level FlightAware ADS-B
Mon 06:19:47 43.7930 6.8290 126° Southeast 481 554 35,100  Level FlightAware ADS-B
Mon 06:20:27 43.7390 6.9290 127° Southeast 485 558 35,100  Level FlightAware ADS-B
Mon 06:21:07 43.6840 7.0410 124° Southeast 489 563 35,100  Level FlightAware ADS-B
Mon 06:21:52 43.6300 7.1620 122° Southeast 489 563 35,100  Level FlightAware ADS-B
Mon 06:22:32 43.5830 7.2700 121° Southeast 488 562 35,100  Level FlightAware ADS-B
Mon 06:23:12 43.5350 7.3740 122° Southeast 488 562 35,100  Level FlightAware ADS-B
Mon 06:23:57 43.4820 7.4920 122° Southeast 488 562 35,100  Level FlightAware ADS-B
Mon 06:24:37 43.4350 7.5940 122° Southeast 487 560 35,100  Level FlightAware ADS-B
Mon 06:25:22 43.3790 7.7190 122° Southeast 489 563 35,100  Level FlightAware ADS-B
Mon 06:26:02 43.3340 7.8180 122° Southeast 490 564 35,100 -80 Level FlightAware ADS-B
Mon 06:26:37 50.7470 3.0500 338° Northwest 517 595 35,000  Descending FlightAware ADS-B
Mon 06:26:42 43.2840 7.9270 154° Southeast 489 563 35,100  Climbing FlightAware ADS-B
Mon 06:27:27 50.7040 3.1960 338° Northwest 517 595 35,000 -71 Descending FlightAware ADS-B
Mon 06:28:07 50.6700 3.3120 115° Southeast 517 595 35,000  Level FlightAware ADS-B
Mon 06:28:47 50.6360 3.4280 115° Southeast 517 595 35,000 133 Level FlightAware ADS-B
Mon 06:28:52 43.1280 8.2720 154° Southeast 491 565 35,100  Climbing FlightAware ADS-B
Mon 06:29:27 50.6010 3.5440 338° Northwest 517 595 35,000  Descending FlightAware ADS-B
Mon 06:29:32 43.0800 8.3760 154° Southeast 491 565 35,100  Climbing FlightAware ADS-B
Mon 06:30:07 50.5670 3.6610 338° Northwest 517 595 35,000  Descending FlightAware ADS-B
Mon 06:30:12 43.0320 8.4820 155° Southeast 491 565 35,100  Climbing FlightAware ADS-B
Mon 06:30:57 50.5240 3.8050 339° North 517 595 35,000 -71 Descending FlightAware ADS-B
Mon 06:31:37 50.4890 3.9210 115° Southeast 517 595 35,000  Level FlightAware ADS-B
Mon 06:32:17 50.4550 4.0370 115° Southeast 517 595 35,000 133 Level FlightAware ADS-B
Mon 06:32:22 42.8740 8.8210 155° Southeast 491 565 35,100  Climbing FlightAware ADS-B
Mon 06:32:57 50.4210 4.1530 339° North 517 595 35,000  Descending FlightAware ADS-B
Mon 06:33:02 42.8280 8.9190 155° Southeast 491 565 35,100  Climbing FlightAware ADS-B
Mon 06:33:37 50.3860 4.2680 339° North 517 595 35,000  Descending FlightAware ADS-B
Mon 06:33:42 42.7770 9.0290 155° Southeast 490 564 35,100  Climbing FlightAware ADS-B
Mon 06:34:17 50.3520 4.3840 339° North 517 595 35,000  Descending FlightAware ADS-B
Mon 06:34:22 42.7290 9.1310 155° Southeast 489 563 35,100  Climbing FlightAware ADS-B
Mon 06:35:07 50.3090 4.5280 339° North 517 595 35,000 -71 Descending FlightAware ADS-B
Mon 06:35:47 50.2750 4.6440 115° Southeast 517 595 35,000 71 Level FlightAware ADS-B
Mon 06:36:32 42.5710 9.4680 155° Southeast 490 564 35,100 71 Climbing FlightAware ADS-B
Mon 06:37:12 42.5360 9.5810 113° Southeast 494 568 35,100  Level FlightAware ADS-B
Mon 06:37:57 42.4990 9.7160 110° East 492 566 35,100  Level FlightAware ADS-B
Mon 06:38:37 42.4680 9.8330 110° East 491 565 35,100  Level FlightAware ADS-B
Mon 06:39:22 42.4330 9.9610 110° East 491 565 35,100  Level FlightAware ADS-B
Mon 06:40:02 42.4030 10.0720 110° East 491 565 35,100  Level FlightAware ADS-B
Mon 06:40:47 42.3670 10.2040 110° East 492 566 35,100  Level FlightAware ADS-B
Mon 06:41:27 42.3350 10.3210 110° East 492 566 35,100  Level FlightAware ADS-B
Mon 06:42:07 42.3030 10.4360 111° Southeast 492 566 35,100  Level FlightAware ADS-B
Mon 06:42:52 42.2680 10.5640 110° East 492 566 35,100  Level FlightAware ADS-B
Mon 06:43:32 42.2360 10.6780 111° Southeast 492 566 35,100  Level FlightAware ADS-B
Mon 06:44:17 42.2010 10.8070 110° East 492 566 35,100  Level FlightAware ADS-B
Mon 06:44:57 42.1680 10.9260 110° East 493 567 35,100  Level FlightAware ADS-B
Mon 06:45:37 42.1370 11.0340 111° Southeast 494 568 35,100  Level FlightAware ADS-B
Mon 06:46:22 42.1020 11.1590 111° Southeast 495 570 35,100  Level FlightAware ADS-B
Mon 06:47:02 42.0700 11.2750 110° East 496 571 35,100  Level FlightAware ADS-B
Mon 06:47:42 42.0300 11.3860 116° Southeast 487 560 35,100  Level FlightAware ADS-B
Mon 06:48:27 41.9680 11.4830 131° Southeast 489 563 35,100  Level FlightAware ADS-B
Mon 06:49:07 41.9060 11.5720 133° Southeast 488 562 35,100  Level FlightAware ADS-B
Mon 06:49:47 41.8450 11.6580 134° Southeast 490 564 35,100  Level FlightAware ADS-B
Mon 06:50:27 41.7720 11.7610 134° Southeast 490 564 35,100  Level FlightAware ADS-B
Mon 06:51:12 41.7010 11.8600 134° Southeast 491 565 35,100  Level FlightAware ADS-B
Mon 06:51:57 41.6310 11.9580 134° Southeast 493 567 35,100  Level FlightAware ADS-B
Mon 06:52:37 41.5680 12.0470 133° Southeast 493 567 35,100  Level FlightAware ADS-B
Mon 06:53:17 41.5060 12.1320 134° Southeast 494 568 35,100  Level FlightAware ADS-B
Mon 06:54:02 41.4330 12.2340 134° Southeast 488 562 35,100  Level FlightAware ADS-B
Mon 06:54:57 41.3560 12.3400 134° Southeast 494 568 35,100  Level FlightAware ADS-B
Mon 06:55:42 41.2900 12.4310 134° Southeast 495 570 35,100  Level FlightAware ADS-B
Mon 06:56:17 41.2380 12.5020 134° Southeast 495 570 35,100  Level FlightAware ADS-B
Mon 06:57:07 41.1670 12.6170 129° Southeast 497 572 35,100  Level FlightAware ADS-B
Mon 06:57:57 41.1170 12.7580 115° Southeast 500 575 35,100  Level FlightAware ADS-B
Mon 06:58:37 41.0790 12.8500 119° Southeast 500 575 35,100  Level FlightAware ADS-B
Mon 06:59:17 41.0400 12.9410 120° Southeast 500 575 35,100  Level FlightAware ADS-B
Mon 07:00:22 40.9390 13.1200 127° Southeast 501 577 35,100  Level FlightAware ADS-B
Mon 07:01:02 40.8690 13.2750 121° Southeast 502 578 35,100  Level FlightAware ADS-B
Mon 07:01:47 40.8180 13.3870 121° Southeast 504 580 35,100  Level FlightAware ADS-B
Mon 07:02:22 40.7740 13.4820 121° Southeast 504 580 35,100  Level FlightAware ADS-B
Mon 07:03:12 40.7120 13.6140 122° Southeast 505 581 35,100  Level FlightAware ADS-B
Mon 07:03:52 40.6630 13.7190 122° Southeast 505 581 35,100  Level FlightAware ADS-B
Mon 07:04:32 40.6140 13.8230 122° Southeast 505 581 35,100  Level FlightAware ADS-B
Mon 07:05:17 40.5590 13.9400 122° Southeast 505 581 35,100  Level FlightAware ADS-B
Mon 07:05:57 40.5120 14.0410 121° Southeast 506 582 35,100  Level FlightAware ADS-B
Mon 07:06:42 40.4530 14.1640 122° Southeast 507 583 35,100  Level FlightAware ADS-B
Mon 07:07:22 40.4040 14.2690 121° Southeast 507 583 35,100  Level FlightAware ADS-B
Mon 07:08:02 40.3550 14.3710 122° Southeast 507 583 35,100  Level FlightAware ADS-B
Mon 07:08:47 40.2980 14.4900 122° Southeast 508 585 35,100  Level FlightAware ADS-B
Mon 07:09:22 40.2550 14.5790 122° Southeast 509 586 35,100  Level FlightAware ADS-B
Mon 07:10:12 40.1910 14.7110 122° Southeast 510 587 35,100  Level FlightAware ADS-B
Mon 07:10:52 40.1410 14.8150 122° Southeast 511 588 35,100  Level FlightAware ADS-B
Mon 07:11:32 40.0910 14.9180 122° Southeast 511 588 35,100  Level FlightAware ADS-B
Mon 07:12:17 40.0340 15.0340 123° Southeast 511 588 35,100  Level FlightAware ADS-B
Mon 07:12:57 39.9820 15.1400 123° Southeast 510 587 35,100  Level FlightAware ADS-B
Mon 07:13:37 39.9320 15.2410 123° Southeast 511 588 35,100  Level FlightAware ADS-B
Mon 07:14:22 39.8730 15.3600 123° Southeast 511 588 35,100  Level FlightAware ADS-B
Mon 07:15:02 39.8210 15.4640 123° Southeast 510 587 35,100  Level FlightAware ADS-B
Mon 07:15:42 39.7700 15.5660 123° Southeast 512 589 35,100  Level FlightAware ADS-B
Mon 07:16:27 39.7120 15.6810 123° Southeast 514 592 35,100  Level FlightAware ADS-B
Mon 07:17:07 39.6610 15.7820 123° Southeast 514 592 35,100  Level FlightAware ADS-B
Mon 07:17:52 39.6010 15.9030 123° Southeast 515 593 35,100  Level FlightAware ADS-B
Mon 07:18:32 39.5480 16.0060 124° Southeast 517 595 35,100  Level FlightAware ADS-B
Mon 07:19:17 39.4900 16.1190 124° Southeast 517 595 35,100  Level FlightAware ADS-B
Mon 07:19:57 39.4380 16.2230 123° Southeast 519 597 35,100  Level FlightAware ADS-B
Mon 07:20:32 39.3950 16.3070 124° Southeast 520 598 35,100  Level FlightAware ADS-B
Mon 07:21:22 39.3270 16.4390 124° Southeast 519 597 35,100  Level FlightAware ADS-B
Mon 07:22:02 39.2740 16.5430 123° Southeast 521 600 35,100  Level FlightAware ADS-B
Mon 07:22:42 39.2200 16.6490 123° Southeast 520 598 35,100  Level FlightAware ADS-B
Mon 07:23:27 39.1610 16.7640 123° Southeast 522 601 35,100  Level FlightAware ADS-B
Mon 07:24:07 39.1080 16.8660 124° Southeast 523 602 35,100  Level FlightAware ADS-B
Mon 07:24:47 39.0530 16.9730 123° Southeast 526 605 35,100  Level FlightAware ADS-B
Mon 07:25:32 38.9950 17.0940 122° Southeast 525 604 35,100  Level FlightAware ADS-B
Mon 07:26:12 38.9620 17.2090 110° East 521 600 35,100  Level FlightAware ADS-B
Mon 07:27:12 38.9210 17.3810 107° East 522 601 35,100  Level FlightAware ADS-B
Mon 07:27:57 38.8880 17.5190 107° East 522 601 35,100  Level FlightAware ADS-B
Mon 07:28:47 38.8600 17.6320 108° East 524 603 35,100  Level FlightAware ADS-B
Mon 07:29:22 38.8370 17.7280 107° East 525 604 35,100  Level FlightAware ADS-B
Mon 07:30:12 38.8000 17.8780 108° East 526 605 35,100  Level FlightAware ADS-B
Mon 07:30:52 38.7690 18.0030 108° East 526 605 35,100  Level FlightAware ADS-B
Mon 07:31:32 38.7400 18.1210 107° East 524 603 35,100  Level FlightAware ADS-B
Mon 07:32:12 38.7120 18.2360 107° East 523 602 35,100  Level FlightAware ADS-B
Mon 07:33:02 38.6750 18.3810 108° East 521 600 35,100  Level FlightAware ADS-B
Mon 07:33:42 38.6430 18.5080 108° East 522 601 35,100  Level FlightAware ADS-B
Mon 07:34:22 38.6130 18.6250 108° East 523 602 35,100  Level FlightAware ADS-B
Mon 07:35:02 38.5840 18.7410 108° East 524 603 35,100  Level FlightAware ADS-B
Mon 07:35:52 38.5470 18.8840 108° East 522 601 35,100  Level FlightAware ADS-B
Mon 07:36:32 38.5210 18.9870 108° East 522 601 35,100  Level FlightAware ADS-B
Mon 07:37:12 38.4950 19.0860 109° East 522 601 35,100 706 Level FlightAware ADS-B
Mon 07:37:57 38.4490 19.2570 109° East 522 601 36,100 706 Climbing FlightAware ADS-B
Mon 07:38:37 38.4180 19.3720 109° East 524 603 36,100  Level FlightAware ADS-B
Mon 07:39:22 38.3830 19.5050 109° East 524 603 36,100  Level FlightAware ADS-B
Mon 07:40:02 38.3520 19.6210 109° East 523 602 36,100  Level FlightAware ADS-B
Mon 07:40:42 38.3190 19.7450 109° East 523 602 36,100  Level FlightAware ADS-B
Mon 07:41:22 38.2890 19.8550 109° East 525 604 36,100  Level FlightAware ADS-B
Mon 07:42:02 38.2560 19.9750 109° East 526 605 36,100  Level FlightAware ADS-B
Mon 07:42:42 38.2220 20.0960 110° East 527 606 36,100  Level FlightAware ADS-B
Mon 07:43:32 38.1740 20.2700 109° East 528 608 36,100  Level FlightAware ADS-B
Mon 07:44:12 38.1410 20.3900 109° East 528 608 36,100  Level FlightAware ADS-B
Mon 07:44:57 38.1030 20.5150 111° Southeast 532 612 36,100  Level FlightAware ADS-B
Mon 07:45:37 38.0620 20.6300 114° Southeast 535 616 36,100  Level FlightAware ADS-B
Mon 07:46:17 38.0190 20.7430 116° Southeast 535 616 36,100  Level FlightAware ADS-B
Mon 07:46:57 37.9760 20.8560 116° Southeast 536 617 36,100  Level FlightAware ADS-B
Mon 07:47:42 37.9260 20.9850 116° Southeast 537 618 36,100  Level FlightAware ADS-B
Mon 07:48:27 37.8760 21.1150 116° Southeast 538 619 36,100  Level FlightAware ADS-B
Mon 07:49:07 37.8320 21.2270 116° Southeast 540 621 36,100  Level FlightAware ADS-B
Mon 07:49:47 37.7880 21.3400 116° Southeast 541 623 36,100  Level FlightAware ADS-B
Mon 07:50:32 37.7400 21.4640 116° Southeast 540 621 36,100  Level FlightAware ADS-B
Mon 07:51:12 37.6950 21.5790 116° Southeast 541 623 36,100  Level FlightAware ADS-B
Mon 07:51:57 37.6430 21.7100 117° Southeast 541 623 36,100  Level FlightAware ADS-B
Mon 07:52:37 37.5990 21.8210 117° Southeast 542 624 36,100  Level FlightAware ADS-B
Mon 07:53:22 37.5500 21.9450 116° Southeast 543 625 36,100  Level FlightAware ADS-B
Mon 07:54:02 37.5050 22.0580 117° Southeast 545 627 36,100  Level FlightAware ADS-B
Mon 07:54:42 37.4580 22.1740 117° Southeast 546 628 36,100  Level FlightAware ADS-B
Mon 07:55:22 37.4150 22.2810 117° Southeast 547 629 36,100 635 Level FlightAware ADS-B
Mon 07:56:07 37.3530 22.4090 121° Southeast 558 642 37,000 667 Climbing FlightAware ADS-B
Mon 07:56:52 37.2850 22.5280 126° Southeast 559 643 37,100 71 Climbing FlightAware ADS-B
Mon 07:57:32 37.2250 22.6340 125° Southeast 556 640 37,100  Level FlightAware ADS-B
Mon 07:58:12 37.1640 22.7390 126° Southeast 555 639 37,100  Level FlightAware ADS-B
Mon 07:58:57 37.0950 22.8570 126° Southeast 557 641 37,100  Level FlightAware ADS-B
Mon 07:59:37 37.0340 22.9600 127° Southeast 557 641 37,100  Level FlightAware ADS-B
Mon 08:00:17 36.9720 23.0670 126° Southeast 557 641 37,100  Level FlightAware ADS-B
Mon 08:01:02 36.9060 23.1800 126° Southeast 557 641 37,100  Level FlightAware ADS-B
Mon 08:01:42 36.8450 23.2850 126° Southeast 560 644 37,100  Level FlightAware ADS-B
Mon 08:02:27 36.7730 23.4060 127° Southeast 561 646 37,100  Level FlightAware ADS-B
Mon 08:03:07 36.7140 23.5060 126° Southeast 562 647 37,100  Level FlightAware ADS-B
Mon 08:03:52 36.6450 23.6230 126° Southeast 562 647 37,100  Level FlightAware ADS-B
Mon 08:04:32 36.5810 23.7290 127° Southeast 563 648 37,100  Level FlightAware ADS-B
Mon 08:05:12 36.5180 23.8320 127° Southeast 566 651 37,100  Level FlightAware ADS-B
Mon 08:05:52 36.4540 23.9340 128° Southeast 569 655 37,100  Level FlightAware ADS-B
Mon 08:06:37 36.3840 24.0470 128° Southeast 569 655 37,100  Level FlightAware ADS-B
Mon 08:07:12 36.3240 24.1430 128° Southeast 571 657 37,100  Level FlightAware ADS-B
Mon 08:08:07 36.2400 24.2790 127° Southeast 572 658 37,100  Level FlightAware ADS-B
Mon 08:08:57 36.1730 24.3900 127° Southeast 572 658 37,100  Level FlightAware ADS-B
Mon 08:09:52 36.0750 24.5460 128° Southeast 568 654 37,100  Level FlightAware ADS-B
Mon 08:10:32 36.0090 24.6510 128° Southeast 568 654 37,100  Level FlightAware ADS-B
Mon 08:11:17 35.9320 24.7740 128° Southeast 568 654 37,100  Level FlightAware ADS-B
Mon 08:11:57 35.8680 24.8760 128° Southeast 566 651 37,100  Level FlightAware ADS-B
Mon 08:12:42 35.7940 24.9930 128° Southeast 564 649 37,100  Level FlightAware ADS-B
Mon 08:13:17 35.7430 25.0750 127° Southeast 564 649 37,100  Level FlightAware ADS-B
Mon 08:14:02 35.6690 25.1930 128° Southeast 563 648 37,100  Level FlightAware ADS-B
Mon 08:14:47 35.5950 25.3100 128° Southeast 561 646 37,100  Level FlightAware ADS-B
Mon 08:15:22 35.5470 25.3880 127° Southeast 561 646 37,100  Level FlightAware ADS-B
Mon 08:16:02 35.4940 25.4740 127° Southeast 561 646 37,100  Level FlightAware ADS-B
Mon 08:16:52 35.4280 25.5820 127° Southeast 561 646 37,100  Level FlightAware ADS-B
Mon 08:17:32 35.3750 25.6690 127° Southeast 561 646 37,100  Level FlightAware ADS-B
Mon 08:18:12 35.3220 25.7550 127° Southeast 561 646 37,100  Level FlightAware ADS-B
Mon 08:18:52 35.2690 25.8420 127° Southeast 561 646 37,100  Level FlightAware ADS-B
Mon 08:19:42 35.2020 25.9490 127° Southeast 561 646 37,100  Level FlightAware ADS-B
Mon 08:20:22 35.1490 26.0360 127° Southeast 561 646 37,100  Level FlightAware ADS-B
Mon 08:21:02 35.0960 26.1220 127° Southeast 561 646 37,100  Level FlightAware ADS-B
Mon 08:21:42 35.0430 26.2080 127° Southeast 561 646 37,100  Level FlightAware ADS-B
Mon 08:22:22 34.9900 26.2940 127° Southeast 561 646 37,100  Level FlightAware ADS-B
Mon 08:23:12 34.9230 26.4010 127° Southeast 561 646 37,100  Level FlightAware ADS-B
Mon 08:23:52 34.8700 26.4870 127° Southeast 561 646 37,100  Level FlightAware ADS-B
Mon 08:24:32 34.8170 26.5730 127° Southeast 561 646 37,100  Level FlightAware ADS-B
Mon 08:27:00 34.7080 26.9751 108° East  Level FlightAware Approximate
Mon 08:28:00 34.6634 27.1378 108° East  Level FlightAware Approximate
Mon 08:29:00 34.6186 27.3004 108° East  Level FlightAware Approximate
Mon 08:30:00 34.5735 27.4627 109° East  Level FlightAware Approximate
Mon 08:31:00 34.5283 27.6249 109° East  Level FlightAware Approximate
Mon 08:32:00 34.4829 27.7869 109° East  Level FlightAware Approximate
Mon 08:33:00 34.4372 27.9487 109° East  Level FlightAware Approximate
Mon 08:34:00 34.3913 28.1104 109° East  Level FlightAware Approximate
Mon 08:34:37 34.1940 28.6540 109° East 569 655 37,100  Level FlightAware ADS-B
Mon 08:35:02 34.1690 28.7230 114° Southeast 571 657 37,100  Level FlightAware ADS-B
Mon 08:35:42 34.1270 28.8410 113° Southeast 571 657 37,100  Level FlightAware ADS-B
Mon 08:36:27 34.0860 28.9560 113° Southeast 571 657 37,100  Level FlightAware ADS-B
Mon 08:37:07 34.0420 29.0780 113° Southeast 37,100  Level FlightAware ADS-B
Mon 08:37:47 34.0030 29.1880 113° Southeast 569 655 37,100  Level FlightAware ADS-B
Mon 08:38:32 33.9510 29.3320 113° Southeast 571 657 37,100  Level FlightAware ADS-B
Mon 08:39:07 33.9150 29.4320 113° Southeast 571 657 37,100  Level FlightAware ADS-B
Mon 08:39:57 33.8640 29.5740 113° Southeast 571 657 37,100  Level FlightAware ADS-B
Mon 08:40:52 33.8040 29.7410 113° Southeast 569 655 37,100  Level FlightAware ADS-B
Mon 08:41:32 33.7620 29.8540 114° Southeast 567 652 37,100  Level FlightAware ADS-B
Mon 08:42:32 33.7080 30.0360 110° East 566 651 37,100  Level FlightAware ADS-B
Mon 08:43:17 33.6820 30.1700 103° East 565 650 37,100  Level FlightAware ADS-B
Mon 08:43:57 33.6570 30.2930 104° East 564 649 37,100  Level FlightAware ADS-B
Mon 08:44:37 33.6340 30.4130 103° East 562 647 37,100  Level FlightAware ADS-B
Mon 08:45:17 33.6090 30.5350 104° East 558 642 37,100  Level FlightAware ADS-B
Mon 08:45:52 33.5890 30.6350 103° East 557 641 37,100  Level FlightAware ADS-B
Mon 08:46:37 33.5600 30.7800 103° East 553 636 37,100  Level FlightAware ADS-B
Mon 08:47:22 33.5330 30.9130 104° East 553 636 37,100  Level FlightAware ADS-B
Mon 08:48:02 33.5100 31.0300 103° East 554 638 37,100  Level FlightAware ADS-B
Mon 08:48:42 33.4840 31.1570 104° East 555 639 37,100  Level FlightAware ADS-B
Mon 08:49:27 33.4570 31.2890 104° East 555 639 37,100  Level FlightAware ADS-B
Mon 08:50:07 33.4340 31.4040 103° East 555 639 37,100  Level FlightAware ADS-B
Mon 08:50:52 33.4060 31.5400 104° East 556 640 37,100  Level FlightAware ADS-B
Mon 08:51:32 33.3820 31.6540 104° East 554 638 37,100  Level FlightAware ADS-B
Mon 08:52:17 33.3530 31.7950 104° East 552 635 37,100  Level FlightAware ADS-B
Mon 08:52:57 33.3280 31.9130 104° East 549 632 37,100  Level FlightAware ADS-B
Mon 08:53:37 33.3040 32.0270 104° East 547 629 37,100  Level FlightAware ADS-B
Mon 08:54:22 33.2750 32.1630 104° East 542 624 37,100  Level FlightAware ADS-B
Mon 08:55:02 33.2510 32.2780 104° East 539 620 37,100  Level FlightAware ADS-B
Mon 08:55:47 33.2230 32.4080 104° East 537 618 37,100 -212 Level FlightAware ADS-B
Mon 08:56:27 33.1990 32.5190 104° East 537 618 36,800 -1,500 Descending FlightAware ADS-B
Mon 08:57:07 33.1740 32.6360 104° East 535 616 35,100 -2,357 Descending FlightAware ADS-B
Mon 08:58:47 33.1110 32.9070 105° East 518 596 31,300 -2,271 Descending FlightAware ADS-B
Mon 08:59:27 33.0700 33.0070 116° Southeast 500 575 29,800 -2,400 Descending FlightAware ADS-B
Mon 09:00:12 33.0090 33.1250 122° Southeast 488 562 27,900 -2,220 Descending FlightAware ADS-B
Mon 09:01:07 32.9500 33.2400 121° Southeast 473 544 26,100 -2,133 Descending FlightAware ADS-B
Mon 09:01:42 32.9070 33.3250 121° Southeast 464 534 24,700 -2,127 Descending FlightAware ADS-B
Mon 09:02:57 32.8250 33.4840 122° Southeast 445 512 22,200 -1,950 Descending FlightAware ADS-B
Mon 09:03:42 32.7750 33.5740 123° Southeast 420 483 20,800 -1,835 Descending FlightAware ADS-B
Mon 09:04:22 32.7260 33.6500 127° Southeast 400 460 19,600 -1,765 Descending FlightAware ADS-B
Mon 09:05:07 32.6780 33.7260 127° Southeast 406 467 18,300 -1,694 Descending FlightAware ADS-B
Mon 09:05:47 32.6340 33.7980 126° Southeast 405 466 17,200 -1,624 Descending FlightAware ADS-B
Mon 09:06:32 32.5840 33.8800 126° Southeast 394 453 16,000 -1,624 Descending FlightAware ADS-B
Mon 09:07:12 32.5410 33.9490 126° Southeast 386 444 14,900 -1,575 Descending FlightAware ADS-B
Mon 09:07:52 32.5000 34.0160 126° Southeast 385 443 13,900 -1,553 Descending FlightAware ADS-B
Mon 09:08:37 32.4530 34.0930 126° Southeast 379 436 12,700 -1,575 Descending FlightAware ADS-B
Mon 09:09:12 32.4190 34.1480 126° Southeast 366 421 11,800 -1,500 Descending FlightAware ADS-B
Mon 09:09:57 32.3760 34.2170 126° Southeast 345 397 10,700 -1,133 Descending FlightAware ADS-B
Mon 09:10:42 32.3310 34.2870 127° Southeast 313 360 10,100 -635 Descending FlightAware ADS-B
Mon 09:11:22 32.2980 34.3390 127° Southeast 282 325 9,800 -600 Descending FlightAware ADS-B
Mon 09:11:32 32.2910 34.3500 127° Southeast 280 322 9,600 -218 Descending FlightAware ADS-B
Mon 09:12:17 32.2610 34.3980 126° Southeast 280 322 9,600  Level FlightAware ADS-B
Mon 09:12:27 32.2540 34.4080 130° Southeast 280 322 9,600  Level FlightAware ADS-B
Mon 09:12:57 32.2340 34.4390 127° Southeast 280 322 9,600  Level FlightAware ADS-B
Mon 09:13:27 32.2140 34.4700 127° Southeast 280 322 9,600  Level FlightAware ADS-B
Mon 09:16:00 32.0232 34.8281 125° Southeast  Level FlightAware Approximate
Mon 09:17:00 32.0000 34.8667 125° Southeast  Level FlightAware Approximate
Mon 09:18:00 32.0095 34.8769 125° Southeast  Level Estimated
Mon 09:19:00 32.0095 34.8769 125° Southeast  Level Estimated
Mon 09:20:00 32.0095 34.8769 125° Southeast  Level Estimated
Mon 09:21:00 32.0095 34.8769 125° Southeast  Level Estimated
Mon 09:22:00 32.0095 34.8769 125° Southeast  Level Estimated
Mon 09:23:00 32.0095 34.8769 125° Southeast  Level Estimated
Mon 09:24:00 32.0095 34.8769 125° Southeast  Level Estimated
Mon 09:25:00 32.0095 34.8769 125° Southeast  Level Estimated
Mon 09:26:00 32.0095 34.8769 125° Southeast  Level Estimated
Mon 09:27:00 32.0095 34.8769 125° Southeast  Level Estimated
Mon 09:28:00 32.0095 34.8769 125° Southeast  Level Estimated
Mon 09:29:00 32.0095 34.8769 125° Southeast  Level Estimated
Mon 09:30:00 32.0095 34.8769 125° Southeast  Level Estimated
Mon 09:31:00 32.0095 34.8769 125° Southeast  Level Estimated
Mon 09:32:00 32.0095 34.8769 125° Southeast  Level Estimated

Login

Don't have an account? Register now (free) for customized features, flight alerts, and more!